sensor_id;sensor_type;location;lat;lon;timestamp;temperature;humidity
40257;DHT22;25977;45.462;9.210;2023-06-22T00:00:51;29.50;63.70
40257;DHT22;25977;45.462;9.210;2023-06-22T00:03:21;29.50;63.70
40257;DHT22;25977;45.462;9.210;2023-06-22T00:05:47;29.50;63.70
40257;DHT22;25977;45.462;9.210;2023-06-22T00:08:14;29.50;63.60
40257;DHT22;25977;45.462;9.210;2023-06-22T00:10:41;29.50;63.70
40257;DHT22;25977;45.462;9.210;2023-06-22T00:13:08;29.50;63.70
40257;DHT22;25977;45.462;9.210;2023-06-22T00:15:35;29.40;63.90
40257;DHT22;25977;45.462;9.210;2023-06-22T00:18:02;29.50;64.10
40257;DHT22;25977;45.462;9.210;2023-06-22T00:20:28;29.40;64.10
40257;DHT22;25977;45.462;9.210;2023-06-22T00:22:58;29.40;64.40
40257;DHT22;25977;45.462;9.210;2023-06-22T00:25:24;29.40;64.40
40257;DHT22;25977;45.462;9.210;2023-06-22T00:27:50;29.40;64.60
40257;DHT22;25977;45.462;9.210;2023-06-22T00:30:16;29.30;64.60
40257;DHT22;25977;45.462;9.210;2023-06-22T00:32:43;29.30;64.70
40257;DHT22;25977;45.462;9.210;2023-06-22T00:35:09;29.20;64.70
40257;DHT22;25977;45.462;9.210;2023-06-22T00:37:36;29.20;64.90
40257;DHT22;25977;45.462;9.210;2023-06-22T00:40:03;29.20;64.80
40257;DHT22;25977;45.462;9.210;2023-06-22T00:42:30;29.20;64.90
40257;DHT22;25977;45.462;9.210;2023-06-22T00:44:56;29.20;65.00
40257;DHT22;25977;45.462;9.210;2023-06-22T00:47:23;29.10;64.90
40257;DHT22;25977;45.462;9.210;2023-06-22T00:49:49;29.10;64.90
40257;DHT22;25977;45.462;9.210;2023-06-22T00:52:20;29.10;65.00
40257;DHT22;25977;45.462;9.210;2023-06-22T00:54:48;29.10;65.00
40257;DHT22;25977;45.462;9.210;2023-06-22T00:57:17;29.10;65.10
40257;DHT22;25977;45.462;9.210;2023-06-22T00:59:47;29.10;65.00
40257;DHT22;25977;45.462;9.210;2023-06-22T01:02:14;29.10;65.10
40257;DHT22;25977;45.462;9.210;2023-06-22T01:04:40;29.10;65.50
40257;DHT22;25977;45.462;9.210;2023-06-22T01:07:35;29.10;65.50
40257;DHT22;25977;45.462;9.210;2023-06-22T01:10:20;29.10;65.40
40257;DHT22;25977;45.462;9.210;2023-06-22T01:13:02;29.00;65.40
40257;DHT22;25977;45.462;9.210;2023-06-22T01:17:57;29.00;65.60
40257;DHT22;25977;45.462;9.210;2023-06-22T01:20:25;28.90;66.20
40257;DHT22;25977;45.462;9.210;2023-06-22T01:23:53;28.90;65.80
40257;DHT22;25977;45.462;9.210;2023-06-22T01:25:48;28.90;65.70
40257;DHT22;25977;45.462;9.210;2023-06-22T01:28:40;28.90;65.80
40257;DHT22;25977;45.462;9.210;2023-06-22T01:31:11;28.90;65.90
40257;DHT22;25977;45.462;9.210;2023-06-22T01:33:41;28.90;66.10
40257;DHT22;25977;45.462;9.210;2023-06-22T01:36:08;28.90;66.00
40257;DHT22;25977;45.462;9.210;2023-06-22T01:38:36;28.90;66.20
40257;DHT22;25977;45.462;9.210;2023-06-22T01:41:02;28.90;66.40
40257;DHT22;25977;45.462;9.210;2023-06-22T01:43:29;28.90;66.40
40257;DHT22;25977;45.462;9.210;2023-06-22T01:45:56;28.80;66.40
40257;DHT22;25977;45.462;9.210;2023-06-22T01:48:23;28.80;66.30
40257;DHT22;25977;45.462;9.210;2023-06-22T01:50:49;28.80;66.70
40257;DHT22;25977;45.462;9.210;2023-06-22T01:53:15;28.70;67.00
40257;DHT22;25977;45.462;9.210;2023-06-22T01:55:40;28.70;66.90
40257;DHT22;25977;45.462;9.210;2023-06-22T01:58:06;28.70;66.70
40257;DHT22;25977;45.462;9.210;2023-06-22T02:00:36;28.70;66.80
40257;DHT22;25977;45.462;9.210;2023-06-22T02:03:21;28.70;66.90
40257;DHT22;25977;45.462;9.210;2023-06-22T02:06:04;28.70;67.00
40257;DHT22;25977;45.462;9.210;2023-06-22T02:08:41;28.60;67.10
40257;DHT22;25977;45.462;9.210;2023-06-22T02:11:09;28.60;67.10
40257;DHT22;25977;45.462;9.210;2023-06-22T02:13:36;28.60;67.30
40257;DHT22;25977;45.462;9.210;2023-06-22T02:16:03;28.60;67.40
40257;DHT22;25977;45.462;9.210;2023-06-22T02:18:29;28.50;67.40
40257;DHT22;25977;45.462;9.210;2023-06-22T02:20:55;28.60;67.40
40257;DHT22;25977;45.462;9.210;2023-06-22T02:23:22;28.50;67.30
40257;DHT22;25977;45.462;9.210;2023-06-22T02:25:47;28.50;67.30
40257;DHT22;25977;45.462;9.210;2023-06-22T02:28:13;28.50;67.40
40257;DHT22;25977;45.462;9.210;2023-06-22T02:30:39;28.50;67.40
40257;DHT22;25977;45.462;9.210;2023-06-22T02:33:06;28.40;67.50
40257;DHT22;25977;45.462;9.210;2023-06-22T02:35:32;28.30;67.70
40257;DHT22;25977;45.462;9.210;2023-06-22T02:38:02;28.30;67.90
40257;DHT22;25977;45.462;9.210;2023-06-22T02:40:29;28.10;68.30
40257;DHT22;25977;45.462;9.210;2023-06-22T02:42:56;28.20;68.40
40257;DHT22;25977;45.462;9.210;2023-06-22T02:45:23;28.20;68.50
40257;DHT22;25977;45.462;9.210;2023-06-22T02:47:50;28.00;68.60
40257;DHT22;25977;45.462;9.210;2023-06-22T02:50:17;28.00;68.80
40257;DHT22;25977;45.462;9.210;2023-06-22T02:52:43;28.10;68.60
40257;DHT22;25977;45.462;9.210;2023-06-22T02:55:09;28.20;68.50
40257;DHT22;25977;45.462;9.210;2023-06-22T02:57:34;28.20;68.40
40257;DHT22;25977;45.462;9.210;2023-06-22T03:00:02;28.30;68.50
40257;DHT22;25977;45.462;9.210;2023-06-22T03:02:30;28.30;68.50
40257;DHT22;25977;45.462;9.210;2023-06-22T03:04:55;28.30;68.30
40257;DHT22;25977;45.462;9.210;2023-06-22T03:07:21;28.20;68.30
40257;DHT22;25977;45.462;9.210;2023-06-22T03:09:49;28.20;68.40
40257;DHT22;25977;45.462;9.210;2023-06-22T03:12:15;28.20;68.70
40257;DHT22;25977;45.462;9.210;2023-06-22T03:14:52;28.20;68.80
40257;DHT22;25977;45.462;9.210;2023-06-22T03:17:18;28.20;68.70
40257;DHT22;25977;45.462;9.210;2023-06-22T03:19:43;28.20;68.60
40257;DHT22;25977;45.462;9.210;2023-06-22T03:22:09;28.20;68.70
40257;DHT22;25977;45.462;9.210;2023-06-22T03:24:35;28.20;68.90
40257;DHT22;25977;45.462;9.210;2023-06-22T03:27:02;28.20;68.90
40257;DHT22;25977;45.462;9.210;2023-06-22T03:29:30;28.20;69.00
40257;DHT22;25977;45.462;9.210;2023-06-22T03:31:56;28.20;69.00
40257;DHT22;25977;45.462;9.210;2023-06-22T03:34:22;28.10;69.00
40257;DHT22;25977;45.462;9.210;2023-06-22T03:36:51;28.10;69.00
40257;DHT22;25977;45.462;9.210;2023-06-22T03:39:17;28.20;69.30
40257;DHT22;25977;45.462;9.210;2023-06-22T03:41:42;28.20;69.30
40257;DHT22;25977;45.462;9.210;2023-06-22T03:44:08;28.20;69.30
40257;DHT22;25977;45.462;9.210;2023-06-22T03:46:38;28.10;69.10
40257;DHT22;25977;45.462;9.210;2023-06-22T03:49:03;28.10;69.20
40257;DHT22;25977;45.462;9.210;2023-06-22T03:51:30;28.10;69.40
40257;DHT22;25977;45.462;9.210;2023-06-22T03:53:56;28.10;69.50
40257;DHT22;25977;45.462;9.210;2023-06-22T03:56:22;28.10;69.50
40257;DHT22;25977;45.462;9.210;2023-06-22T03:58:47;28.10;69.40
40257;DHT22;25977;45.462;9.210;2023-06-22T04:01:13;28.10;69.50
40257;DHT22;25977;45.462;9.210;2023-06-22T04:03:39;28.10;69.40
40257;DHT22;25977;45.462;9.210;2023-06-22T04:06:05;28.10;70.10
40257;DHT22;25977;45.462;9.210;2023-06-22T04:08:30;28.00;69.80
40257;DHT22;25977;45.462;9.210;2023-06-22T04:10:56;28.00;69.90
40257;DHT22;25977;45.462;9.210;2023-06-22T04:13:22;28.00;69.90
40257;DHT22;25977;45.462;9.210;2023-06-22T04:15:47;28.00;70.00
40257;DHT22;25977;45.462;9.210;2023-06-22T04:18:13;28.00;69.90
40257;DHT22;25977;45.462;9.210;2023-06-22T04:20:39;27.90;70.10
40257;DHT22;25977;45.462;9.210;2023-06-22T04:23:05;27.90;70.10
40257;DHT22;25977;45.462;9.210;2023-06-22T04:25:31;28.00;70.30
40257;DHT22;25977;45.462;9.210;2023-06-22T04:27:57;28.00;70.20
40257;DHT22;25977;45.462;9.210;2023-06-22T04:30:22;28.00;70.20
40257;DHT22;25977;45.462;9.210;2023-06-22T04:32:48;28.00;70.30
40257;DHT22;25977;45.462;9.210;2023-06-22T04:35:26;27.90;70.40
40257;DHT22;25977;45.462;9.210;2023-06-22T04:37:53;27.90;70.40
40257;DHT22;25977;45.462;9.210;2023-06-22T04:40:22;28.00;70.10
40257;DHT22;25977;45.462;9.210;2023-06-22T04:42:47;27.90;69.90
40257;DHT22;25977;45.462;9.210;2023-06-22T04:45:19;28.00;70.00
40257;DHT22;25977;45.462;9.210;2023-06-22T04:47:45;27.90;70.10
40257;DHT22;25977;45.462;9.210;2023-06-22T04:50:12;28.00;70.20
40257;DHT22;25977;45.462;9.210;2023-06-22T04:52:38;28.00;69.80
40257;DHT22;25977;45.462;9.210;2023-06-22T04:55:04;27.90;70.30
40257;DHT22;25977;45.462;9.210;2023-06-22T04:57:33;27.80;70.20
40257;DHT22;25977;45.462;9.210;2023-06-22T05:00:00;27.70;70.40
40257;DHT22;25977;45.462;9.210;2023-06-22T05:02:38;27.70;70.70
40257;DHT22;25977;45.462;9.210;2023-06-22T05:05:04;27.50;70.90
40257;DHT22;25977;45.462;9.210;2023-06-22T05:07:36;27.60;70.90
40257;DHT22;25977;45.462;9.210;2023-06-22T05:10:03;27.70;70.70
40257;DHT22;25977;45.462;9.210;2023-06-22T05:12:29;27.80;70.50
40257;DHT22;25977;45.462;9.210;2023-06-22T05:14:56;27.80;70.60
40257;DHT22;25977;45.462;9.210;2023-06-22T05:17:21;27.80;70.40
40257;DHT22;25977;45.462;9.210;2023-06-22T05:19:47;27.80;70.80
40257;DHT22;25977;45.462;9.210;2023-06-22T05:22:16;27.80;70.20
40257;DHT22;25977;45.462;9.210;2023-06-22T05:24:43;27.80;70.40
40257;DHT22;25977;45.462;9.210;2023-06-22T05:27:09;27.90;70.40
40257;DHT22;25977;45.462;9.210;2023-06-22T05:29:36;27.80;70.20
40257;DHT22;25977;45.462;9.210;2023-06-22T05:32:02;27.90;70.20
40257;DHT22;25977;45.462;9.210;2023-06-22T05:34:28;28.00;70.00
40257;DHT22;25977;45.462;9.210;2023-06-22T05:36:54;28.00;69.70
40257;DHT22;25977;45.462;9.210;2023-06-22T05:39:19;28.10;69.60
40257;DHT22;25977;45.462;9.210;2023-06-22T05:41:45;28.20;69.40
40257;DHT22;25977;45.462;9.210;2023-06-22T05:44:11;28.20;69.20
40257;DHT22;25977;45.462;9.210;2023-06-22T05:46:40;28.30;69.20
40257;DHT22;25977;45.462;9.210;2023-06-22T05:49:06;28.30;69.10
40257;DHT22;25977;45.462;9.210;2023-06-22T05:51:31;28.30;69.00
40257;DHT22;25977;45.462;9.210;2023-06-22T05:53:57;28.30;68.90
40257;DHT22;25977;45.462;9.210;2023-06-22T05:56:22;28.30;68.90
40257;DHT22;25977;45.462;9.210;2023-06-22T05:58:48;28.30;69.80
40257;DHT22;25977;45.462;9.210;2023-06-22T06:01:14;28.30;70.30
40257;DHT22;25977;45.462;9.210;2023-06-22T06:03:41;28.30;70.70
40257;DHT22;25977;45.462;9.210;2023-06-22T06:06:07;28.30;70.80
40257;DHT22;25977;45.462;9.210;2023-06-22T06:08:33;28.30;70.80
40257;DHT22;25977;45.462;9.210;2023-06-22T06:10:59;28.30;70.60
40257;DHT22;25977;45.462;9.210;2023-06-22T06:13:24;28.40;70.10
40257;DHT22;25977;45.462;9.210;2023-06-22T06:15:50;28.50;69.80
40257;DHT22;25977;45.462;9.210;2023-06-22T06:18:21;28.70;69.90
40257;DHT22;25977;45.462;9.210;2023-06-22T06:20:47;29.30;70.10
40257;DHT22;25977;45.462;9.210;2023-06-22T06:23:12;30.20;69.10
40257;DHT22;25977;45.462;9.210;2023-06-22T06:25:40;31.20;66.80
40257;DHT22;25977;45.462;9.210;2023-06-22T06:28:05;31.90;65.60
40257;DHT22;25977;45.462;9.210;2023-06-22T06:30:31;32.30;64.80
40257;DHT22;25977;45.462;9.210;2023-06-22T06:32:57;32.20;64.10
40257;DHT22;25977;45.462;9.210;2023-06-22T06:35:23;31.80;64.10
40257;DHT22;25977;45.462;9.210;2023-06-22T06:37:50;31.50;64.60
40257;DHT22;25977;45.462;9.210;2023-06-22T06:40:17;31.30;64.60
40257;DHT22;25977;45.462;9.210;2023-06-22T06:42:47;31.10;65.00
40257;DHT22;25977;45.462;9.210;2023-06-22T06:45:16;30.70;65.20
40257;DHT22;25977;45.462;9.210;2023-06-22T06:47:42;30.60;65.80
40257;DHT22;25977;45.462;9.210;2023-06-22T06:50:08;30.60;66.10
40257;DHT22;25977;45.462;9.210;2023-06-22T06:52:35;30.70;65.90
40257;DHT22;25977;45.462;9.210;2023-06-22T06:55:01;30.90;65.80
40257;DHT22;25977;45.462;9.210;2023-06-22T06:57:27;31.10;65.40
40257;DHT22;25977;45.462;9.210;2023-06-22T06:59:55;31.20;65.00
40257;DHT22;25977;45.462;9.210;2023-06-22T07:02:21;31.20;65.30
40257;DHT22;25977;45.462;9.210;2023-06-22T07:04:47;31.30;65.40
40257;DHT22;25977;45.462;9.210;2023-06-22T07:07:13;31.50;65.40
40257;DHT22;25977;45.462;9.210;2023-06-22T07:09:39;31.70;65.40
40257;DHT22;25977;45.462;9.210;2023-06-22T07:12:05;31.80;65.00
40257;DHT22;25977;45.462;9.210;2023-06-22T07:14:31;31.80;64.70
40257;DHT22;25977;45.462;9.210;2023-06-22T07:16:57;31.90;64.50
40257;DHT22;25977;45.462;9.210;2023-06-22T07:19:27;31.90;63.90
40257;DHT22;25977;45.462;9.210;2023-06-22T07:21:54;31.90;63.70
40257;DHT22;25977;45.462;9.210;2023-06-22T07:24:20;32.10;63.70
40257;DHT22;25977;45.462;9.210;2023-06-22T07:26:49;32.10;63.40
40257;DHT22;25977;45.462;9.210;2023-06-22T07:29:17;32.30;63.30
40257;DHT22;25977;45.462;9.210;2023-06-22T07:31:43;32.30;62.80
40257;DHT22;25977;45.462;9.210;2023-06-22T07:34:08;32.10;62.70
40257;DHT22;25977;45.462;9.210;2023-06-22T07:36:34;32.20;63.00
40257;DHT22;25977;45.462;9.210;2023-06-22T07:39:02;32.20;62.90
40257;DHT22;25977;45.462;9.210;2023-06-22T07:41:30;32.20;63.10
40257;DHT22;25977;45.462;9.210;2023-06-22T07:43:56;32.20;62.90
40257;DHT22;25977;45.462;9.210;2023-06-22T07:46:23;32.20;62.70
40257;DHT22;25977;45.462;9.210;2023-06-22T07:48:48;32.10;62.50
40257;DHT22;25977;45.462;9.210;2023-06-22T07:51:14;32.00;62.90
40257;DHT22;25977;45.462;9.210;2023-06-22T07:53:43;32.20;63.00
40257;DHT22;25977;45.462;9.210;2023-06-22T07:56:13;32.30;62.40
40257;DHT22;25977;45.462;9.210;2023-06-22T07:58:39;32.50;62.10
40257;DHT22;25977;45.462;9.210;2023-06-22T08:01:05;32.50;61.80
40257;DHT22;25977;45.462;9.210;2023-06-22T08:03:32;32.60;62.10
40257;DHT22;25977;45.462;9.210;2023-06-22T08:05:57;32.60;62.10
40257;DHT22;25977;45.462;9.210;2023-06-22T08:08:23;32.60;61.90
40257;DHT22;25977;45.462;9.210;2023-06-22T08:10:49;32.70;61.90
40257;DHT22;25977;45.462;9.210;2023-06-22T08:13:15;32.80;62.40
40257;DHT22;25977;45.462;9.210;2023-06-22T08:15:41;32.80;61.80
40257;DHT22;25977;45.462;9.210;2023-06-22T08:18:06;32.90;61.70
40257;DHT22;25977;45.462;9.210;2023-06-22T08:20:32;33.10;61.60
40257;DHT22;25977;45.462;9.210;2023-06-22T08:22:58;33.20;61.40
40257;DHT22;25977;45.462;9.210;2023-06-22T08:25:30;33.30;61.10
40257;DHT22;25977;45.462;9.210;2023-06-22T08:27:56;33.40;61.00
40257;DHT22;25977;45.462;9.210;2023-06-22T08:30:22;33.40;60.80
40257;DHT22;25977;45.462;9.210;2023-06-22T08:32:47;33.50;60.50
40257;DHT22;25977;45.462;9.210;2023-06-22T08:35:13;33.60;60.50
40257;DHT22;25977;45.462;9.210;2023-06-22T08:37:39;33.60;60.10
40257;DHT22;25977;45.462;9.210;2023-06-22T08:40:06;33.60;60.20
40257;DHT22;25977;45.462;9.210;2023-06-22T08:42:34;33.50;60.00
40257;DHT22;25977;45.462;9.210;2023-06-22T08:45:00;33.60;60.10
40257;DHT22;25977;45.462;9.210;2023-06-22T08:47:27;33.60;60.10
40257;DHT22;25977;45.462;9.210;2023-06-22T08:49:53;33.70;60.10
40257;DHT22;25977;45.462;9.210;2023-06-22T08:52:19;33.80;59.80
40257;DHT22;25977;45.462;9.210;2023-06-22T08:54:48;33.80;59.70
40257;DHT22;25977;45.462;9.210;2023-06-22T08:57:14;33.80;59.70
40257;DHT22;25977;45.462;9.210;2023-06-22T08:59:39;33.90;59.60
40257;DHT22;25977;45.462;9.210;2023-06-22T09:02:05;33.80;59.40
40257;DHT22;25977;45.462;9.210;2023-06-22T09:04:31;33.80;59.30
40257;DHT22;25977;45.462;9.210;2023-06-22T09:07:00;33.60;59.60
40257;DHT22;25977;45.462;9.210;2023-06-22T09:09:26;33.70;59.70
40257;DHT22;25977;45.462;9.210;2023-06-22T09:11:52;33.70;59.90
40257;DHT22;25977;45.462;9.210;2023-06-22T09:14:17;33.80;59.90
40257;DHT22;25977;45.462;9.210;2023-06-22T09:16:44;33.80;60.10
40257;DHT22;25977;45.462;9.210;2023-06-22T09:19:10;33.90;60.40
40257;DHT22;25977;45.462;9.210;2023-06-22T09:21:36;33.90;60.60
40257;DHT22;25977;45.462;9.210;2023-06-22T09:24:02;33.90;60.30
40257;DHT22;25977;45.462;9.210;2023-06-22T09:26:28;34.00;60.70
40257;DHT22;25977;45.462;9.210;2023-06-22T09:28:54;34.00;60.60
40257;DHT22;25977;45.462;9.210;2023-06-22T09:31:20;34.00;60.70
40257;DHT22;25977;45.462;9.210;2023-06-22T09:33:52;34.00;60.40
40257;DHT22;25977;45.462;9.210;2023-06-22T09:36:18;34.00;60.40
40257;DHT22;25977;45.462;9.210;2023-06-22T09:38:44;33.80;60.30
40257;DHT22;25977;45.462;9.210;2023-06-22T09:41:09;33.70;60.50
40257;DHT22;25977;45.462;9.210;2023-06-22T09:43:35;33.80;60.40
40257;DHT22;25977;45.462;9.210;2023-06-22T09:46:01;34.00;60.50
40257;DHT22;25977;45.462;9.210;2023-06-22T09:48:28;33.90;60.10
40257;DHT22;25977;45.462;9.210;2023-06-22T09:50:55;33.50;60.30
40257;DHT22;25977;45.462;9.210;2023-06-22T09:53:21;33.60;60.20
40257;DHT22;25977;45.462;9.210;2023-06-22T09:55:47;33.70;60.10
40257;DHT22;25977;45.462;9.210;2023-06-22T09:58:13;33.80;59.70
40257;DHT22;25977;45.462;9.210;2023-06-22T10:00:38;33.90;59.50
40257;DHT22;25977;45.462;9.210;2023-06-22T10:03:04;34.00;59.60
40257;DHT22;25977;45.462;9.210;2023-06-22T10:05:29;34.10;59.50
40257;DHT22;25977;45.462;9.210;2023-06-22T10:07:55;34.20;59.40
40257;DHT22;25977;45.462;9.210;2023-06-22T10:10:21;34.30;59.00
40257;DHT22;25977;45.462;9.210;2023-06-22T10:12:57;34.30;59.00
40257;DHT22;25977;45.462;9.210;2023-06-22T10:15:23;34.30;58.90
40257;DHT22;25977;45.462;9.210;2023-06-22T10:17:49;34.30;58.90
40257;DHT22;25977;45.462;9.210;2023-06-22T10:20:15;34.20;59.00
40257;DHT22;25977;45.462;9.210;2023-06-22T10:22:43;34.20;58.90
40257;DHT22;25977;45.462;9.210;2023-06-22T10:25:13;34.20;58.70
40257;DHT22;25977;45.462;9.210;2023-06-22T10:27:39;34.20;59.00
40257;DHT22;25977;45.462;9.210;2023-06-22T10:30:09;34.10;59.10
40257;DHT22;25977;45.462;9.210;2023-06-22T10:32:35;34.20;59.10
40257;DHT22;25977;45.462;9.210;2023-06-22T10:35:01;34.20;59.00
40257;DHT22;25977;45.462;9.210;2023-06-22T10:37:27;34.10;59.10
40257;DHT22;25977;45.462;9.210;2023-06-22T10:39:53;34.10;59.20
40257;DHT22;25977;45.462;9.210;2023-06-22T10:42:18;33.90;59.20
40257;DHT22;25977;45.462;9.210;2023-06-22T10:44:44;33.90;58.90
40257;DHT22;25977;45.462;9.210;2023-06-22T10:47:10;33.60;59.00
40257;DHT22;25977;45.462;9.210;2023-06-22T10:49:39;33.70;58.80
40257;DHT22;25977;45.462;9.210;2023-06-22T10:52:08;33.80;58.70
40257;DHT22;25977;45.462;9.210;2023-06-22T10:54:38;33.90;58.60
40257;DHT22;25977;45.462;9.210;2023-06-22T10:57:04;33.90;59.00
40257;DHT22;25977;45.462;9.210;2023-06-22T10:59:29;33.80;59.00
40257;DHT22;25977;45.462;9.210;2023-06-22T11:01:56;33.90;59.10
40257;DHT22;25977;45.462;9.210;2023-06-22T11:04:22;33.70;58.30
40257;DHT22;25977;45.462;9.210;2023-06-22T11:06:48;33.70;58.00
40257;DHT22;25977;45.462;9.210;2023-06-22T11:09:15;33.80;58.00
40257;DHT22;25977;45.462;9.210;2023-06-22T11:11:46;33.70;58.00
40257;DHT22;25977;45.462;9.210;2023-06-22T11:14:12;33.80;57.60
40257;DHT22;25977;45.462;9.210;2023-06-22T11:16:37;33.80;57.60
40257;DHT22;25977;45.462;9.210;2023-06-22T11:19:05;33.70;57.70
40257;DHT22;25977;45.462;9.210;2023-06-22T11:21:31;33.70;57.20
40257;DHT22;25977;45.462;9.210;2023-06-22T11:23:57;33.70;57.20
40257;DHT22;25977;45.462;9.210;2023-06-22T11:26:23;33.70;57.20
40257;DHT22;25977;45.462;9.210;2023-06-22T11:28:49;33.80;57.40
40257;DHT22;25977;45.462;9.210;2023-06-22T11:31:14;33.70;57.70
40257;DHT22;25977;45.462;9.210;2023-06-22T11:33:40;33.70;57.60
40257;DHT22;25977;45.462;9.210;2023-06-22T11:36:06;33.50;57.60
40257;DHT22;25977;45.462;9.210;2023-06-22T11:38:31;33.70;57.40
40257;DHT22;25977;45.462;9.210;2023-06-22T11:40:58;33.60;57.50
40257;DHT22;25977;45.462;9.210;2023-06-22T11:43:25;33.70;58.00
40257;DHT22;25977;45.462;9.210;2023-06-22T11:45:50;33.70;58.30
40257;DHT22;25977;45.462;9.210;2023-06-22T11:48:16;33.70;58.80
40257;DHT22;25977;45.462;9.210;2023-06-22T11:50:42;33.70;58.40
40257;DHT22;25977;45.462;9.210;2023-06-22T11:53:07;33.50;58.50
40257;DHT22;25977;45.462;9.210;2023-06-22T11:55:33;33.40;58.30
40257;DHT22;25977;45.462;9.210;2023-06-22T11:57:59;33.40;58.70
40257;DHT22;25977;45.462;9.210;2023-06-22T12:00:27;33.50;58.40
40257;DHT22;25977;45.462;9.210;2023-06-22T12:02:53;33.60;58.70
40257;DHT22;25977;45.462;9.210;2023-06-22T12:05:20;33.80;58.70
40257;DHT22;25977;45.462;9.210;2023-06-22T12:07:50;33.80;58.10
40257;DHT22;25977;45.462;9.210;2023-06-22T12:10:16;33.80;58.00
40257;DHT22;25977;45.462;9.210;2023-06-22T12:12:41;33.70;58.10
40257;DHT22;25977;45.462;9.210;2023-06-22T12:15:09;33.70;58.90
40257;DHT22;25977;45.462;9.210;2023-06-22T12:17:34;33.70;58.60
40257;DHT22;25977;45.462;9.210;2023-06-22T12:20:00;33.90;59.50
40257;DHT22;25977;45.462;9.210;2023-06-22T12:22:27;33.80;59.80
40257;DHT22;25977;45.462;9.210;2023-06-22T12:24:53;33.90;59.40
40257;DHT22;25977;45.462;9.210;2023-06-22T12:27:18;34.00;59.40
40257;DHT22;25977;45.462;9.210;2023-06-22T12:29:47;33.80;59.50
40257;DHT22;25977;45.462;9.210;2023-06-22T12:32:14;33.90;59.70
40257;DHT22;25977;45.462;9.210;2023-06-22T12:34:42;33.90;59.30
40257;DHT22;25977;45.462;9.210;2023-06-22T12:37:08;33.90;59.40
40257;DHT22;25977;45.462;9.210;2023-06-22T12:39:33;33.80;59.60
40257;DHT22;25977;45.462;9.210;2023-06-22T12:41:59;33.70;59.60
40257;DHT22;25977;45.462;9.210;2023-06-22T12:44:25;33.40;59.50
40257;DHT22;25977;45.462;9.210;2023-06-22T12:46:51;33.30;59.80
40257;DHT22;25977;45.462;9.210;2023-06-22T12:49:17;33.20;59.20
40257;DHT22;25977;45.462;9.210;2023-06-22T12:51:43;33.10;59.40
40257;DHT22;25977;45.462;9.210;2023-06-22T12:54:10;33.10;60.00
40257;DHT22;25977;45.462;9.210;2023-06-22T12:56:37;33.20;59.70
40257;DHT22;25977;45.462;9.210;2023-06-22T12:59:04;33.10;60.10
40257;DHT22;25977;45.462;9.210;2023-06-22T13:01:30;33.20;60.30
40257;DHT22;25977;45.462;9.210;2023-06-22T13:03:58;33.40;60.10
40257;DHT22;25977;45.462;9.210;2023-06-22T13:06:23;33.60;60.00
40257;DHT22;25977;45.462;9.210;2023-06-22T13:08:49;33.80;60.00
40257;DHT22;25977;45.462;9.210;2023-06-22T13:11:15;33.80;59.90
40257;DHT22;25977;45.462;9.210;2023-06-22T13:13:40;33.90;59.80
40257;DHT22;25977;45.462;9.210;2023-06-22T13:16:07;34.00;59.80
40257;DHT22;25977;45.462;9.210;2023-06-22T13:18:33;34.10;59.50
40257;DHT22;25977;45.462;9.210;2023-06-22T13:21:01;34.10;59.90
40257;DHT22;25977;45.462;9.210;2023-06-22T13:23:27;33.90;60.10
40257;DHT22;25977;45.462;9.210;2023-06-22T13:25:53;33.90;60.40
40257;DHT22;25977;45.462;9.210;2023-06-22T13:28:18;33.90;60.20
40257;DHT22;25977;45.462;9.210;2023-06-22T13:30:45;34.00;60.50
40257;DHT22;25977;45.462;9.210;2023-06-22T13:33:13;34.00;60.20
40257;DHT22;25977;45.462;9.210;2023-06-22T13:35:38;34.00;60.50
40257;DHT22;25977;45.462;9.210;2023-06-22T13:38:04;33.80;60.60
40257;DHT22;25977;45.462;9.210;2023-06-22T13:40:30;33.70;60.90
40257;DHT22;25977;45.462;9.210;2023-06-22T13:42:56;33.70;61.00
40257;DHT22;25977;45.462;9.210;2023-06-22T13:45:22;33.70;61.10
40257;DHT22;25977;45.462;9.210;2023-06-22T13:47:48;33.70;61.20
40257;DHT22;25977;45.462;9.210;2023-06-22T13:50:13;33.70;61.10
40257;DHT22;25977;45.462;9.210;2023-06-22T13:52:39;33.80;61.70
40257;DHT22;25977;45.462;9.210;2023-06-22T13:55:05;33.60;61.30
40257;DHT22;25977;45.462;9.210;2023-06-22T13:57:32;33.70;61.50
40257;DHT22;25977;45.462;9.210;2023-06-22T13:59:59;33.60;61.60
40257;DHT22;25977;45.462;9.210;2023-06-22T14:02:26;33.70;61.60
40257;DHT22;25977;45.462;9.210;2023-06-22T14:04:52;33.70;61.50
40257;DHT22;25977;45.462;9.210;2023-06-22T14:07:17;33.80;61.60
40257;DHT22;25977;45.462;9.210;2023-06-22T14:09:45;33.70;61.50
40257;DHT22;25977;45.462;9.210;2023-06-22T14:12:11;33.70;61.30
40257;DHT22;25977;45.462;9.210;2023-06-22T14:14:37;33.70;61.30
40257;DHT22;25977;45.462;9.210;2023-06-22T14:17:03;33.80;61.10
40257;DHT22;25977;45.462;9.210;2023-06-22T14:19:29;33.60;61.40
40257;DHT22;25977;45.462;9.210;2023-06-22T14:21:55;33.60;61.50
40257;DHT22;25977;45.462;9.210;2023-06-22T14:24:22;33.50;61.20
40257;DHT22;25977;45.462;9.210;2023-06-22T14:26:48;33.60;60.90
40257;DHT22;25977;45.462;9.210;2023-06-22T14:29:14;33.70;60.60
40257;DHT22;25977;45.462;9.210;2023-06-22T14:31:39;33.80;60.40
40257;DHT22;25977;45.462;9.210;2023-06-22T14:34:05;33.80;60.40
40257;DHT22;25977;45.462;9.210;2023-06-22T14:36:31;33.90;60.00
40257;DHT22;25977;45.462;9.210;2023-06-22T14:38:57;33.80;59.90
40257;DHT22;25977;45.462;9.210;2023-06-22T14:41:23;33.90;60.00
40257;DHT22;25977;45.462;9.210;2023-06-22T14:43:52;33.90;60.70
40257;DHT22;25977;45.462;9.210;2023-06-22T14:46:18;33.90;60.90
40257;DHT22;25977;45.462;9.210;2023-06-22T14:48:44;34.00;60.80
40257;DHT22;25977;45.462;9.210;2023-06-22T14:51:11;33.90;61.00
40257;DHT22;25977;45.462;9.210;2023-06-22T14:53:37;33.90;60.90
40257;DHT22;25977;45.462;9.210;2023-06-22T14:56:03;33.80;61.00
40257;DHT22;25977;45.462;9.210;2023-06-22T14:58:32;33.80;60.90
40257;DHT22;25977;45.462;9.210;2023-06-22T15:01:04;33.80;60.60
40257;DHT22;25977;45.462;9.210;2023-06-22T15:03:34;33.70;61.10
40257;DHT22;25977;45.462;9.210;2023-06-22T15:06:02;33.70;60.40
40257;DHT22;25977;45.462;9.210;2023-06-22T15:08:28;33.70;60.20
40257;DHT22;25977;45.462;9.210;2023-06-22T15:10:54;33.70;59.80
40257;DHT22;25977;45.462;9.210;2023-06-22T15:13:20;33.70;59.80
40257;DHT22;25977;45.462;9.210;2023-06-22T15:15:47;33.70;59.60
40257;DHT22;25977;45.462;9.210;2023-06-22T15:18:14;33.70;59.30
40257;DHT22;25977;45.462;9.210;2023-06-22T15:20:40;33.60;58.30
40257;DHT22;25977;45.462;9.210;2023-06-22T15:23:07;33.50;57.10
40257;DHT22;25977;45.462;9.210;2023-06-22T15:25:34;33.50;57.80
40257;DHT22;25977;45.462;9.210;2023-06-22T15:27:59;33.50;58.90
40257;DHT22;25977;45.462;9.210;2023-06-22T15:30:25;33.50;59.10